Time;durP1;ratioP1;P1;durP2;ratioP2;P2;SDS_P1;SDS_P2;PMS_P1;PMS_P2;Temp;Humidity;BMP_temperature;BMP_pressure;BME280_temperature;BME280_humidity;BME280_pressure;Samples;Min_cycle;Max_cycle;Signal;HPM_P1;HPM_P2
2022/08/26 00:01:27;;;;;;;6.78;4.60;;;24.80;99.90;;;;;;5083306;28;20751;-67
2022/08/26 00:03:53;;;;;;;7.70;4.63;;;24.70;99.90;;;;;;5084455;28;20905;-66
2022/08/26 00:06:18;;;;;;;10.68;4.90;;;24.70;99.90;;;;;;5084739;28;20392;-67
2022/08/26 00:08:45;;;;;;;12.63;4.47;;;24.60;99.90;;;;;;5086518;28;20467;-67
2022/08/26 00:11:11;;;;;;;7.60;4.70;;;24.60;99.90;;;;;;5090305;28;20393;-67
2022/08/26 00:13:38;;;;;;;10.27;4.65;;;24.60;99.90;;;;;;5088378;28;20374;-67
2022/08/26 00:16:06;;;;;;;8.77;5.00;;;24.60;99.90;;;;;;5086994;28;20772;-67
2022/08/26 00:18:32;;;;;;;8.10;5.03;;;24.50;99.90;;;;;;5091022;28;20665;-67
2022/08/26 00:20:57;;;;;;;8.07;4.70;;;24.50;99.90;;;;;;5089475;28;20388;-67
2022/08/26 00:23:23;;;;;;;9.65;4.75;;;24.50;99.90;;;;;;5088597;28;20627;-67
2022/08/26 00:25:49;;;;;;;9.52;4.43;;;24.50;99.90;;;;;;5087126;28;20778;-67
2022/08/26 00:28:15;;;;;;;10.83;4.60;;;24.50;99.90;;;;;;5089597;28;20448;-67
2022/08/26 00:30:41;;;;;;;10.30;4.60;;;24.50;99.90;;;;;;5087596;28;20773;-67
2022/08/26 00:33:07;;;;;;;8.65;4.65;;;24.40;99.90;;;;;;5087460;28;20393;-67
2022/08/26 00:35:33;;;;;;;10.05;4.55;;;24.40;99.90;;;;;;5109946;28;20601;-67
2022/08/26 00:38:00;;;;;;;8.27;4.93;;;24.40;99.90;;;;;;5111508;28;20554;-67
2022/08/26 00:40:41;;;;;;;8.17;4.40;;;24.30;99.90;;;;;;5095453;28;20505;-67
2022/08/26 00:43:07;;;;;;;7.63;4.70;;;24.30;99.90;;;;;;5094006;28;20387;-66
2022/08/26 00:45:44;;;;;;;12.10;4.80;;;24.20;99.90;;;;;;5095185;28;20380;-67
2022/08/26 00:48:11;;;;;;;8.85;4.30;;;24.20;99.90;;;;;;5095099;28;20800;-67
2022/08/26 00:50:41;;;;;;;9.73;4.55;;;24.20;99.90;;;;;;5093456;28;20839;-67
2022/08/26 00:53:20;;;;;;;8.93;4.60;;;24.20;99.90;;;;;;5092713;28;20647;-67
2022/08/26 00:55:51;;;;;;;9.15;4.68;;;24.20;99.90;;;;;;5092845;28;20517;-66
2022/08/26 00:58:17;;;;;;;16.03;5.60;;;24.10;99.90;;;;;;5094945;28;20422;-67
2022/08/26 01:00:43;;;;;;;7.13;4.50;;;24.10;99.90;;;;;;5095385;28;20444;-66
2022/08/26 01:03:10;;;;;;;9.77;5.00;;;24.10;99.90;;;;;;5094892;28;20403;-67
2022/08/26 01:05:40;;;;;;;7.35;4.72;;;24.10;99.90;;;;;;5095867;28;20376;-67
2022/08/26 01:08:05;;;;;;;7.90;4.85;;;24.10;99.90;;;;;;5113784;28;20500;-66
2022/08/26 01:10:31;;;;;;;7.20;4.40;;;24.00;99.90;;;;;;5097458;28;20424;-67
2022/08/26 01:13:00;;;;;;;9.07;4.78;;;24.00;99.90;;;;;;5114148;28;20717;-67
2022/08/26 01:15:31;;;;;;;8.65;4.80;;;24.00;99.90;;;;;;5095381;28;20459;-67
2022/08/26 01:17:58;;;;;;;8.30;4.20;;;24.00;99.90;;;;;;5094727;28;20538;-67
2022/08/26 01:20:30;;;;;;;9.20;4.85;;;24.00;99.90;;;;;;5112077;28;20449;-67
2022/08/26 01:23:00;;;;;;;9.27;4.60;;;23.90;99.90;;;;;;5110405;28;20425;-67
2022/08/26 01:25:29;;;;;;;10.10;4.07;;;24.00;99.90;;;;;;5092802;28;20372;-65
2022/08/26 01:27:57;;;;;;;9.82;4.63;;;24.00;99.90;;;;;;5093462;28;20483;-65
2022/08/26 01:30:25;;;;;;;11.83;5.10;;;23.90;99.90;;;;;;5111105;28;20380;-65
2022/08/26 01:32:53;;;;;;;9.52;4.85;;;23.90;99.90;;;;;;5093607;28;20400;-65
2022/08/26 01:35:19;;;;;;;7.23;4.40;;;23.80;99.90;;;;;;5091161;28;20892;-65
2022/08/26 01:37:48;;;;;;;8.80;4.35;;;23.80;99.90;;;;;;5093476;28;20480;-65
2022/08/26 01:40:19;;;;;;;8.60;4.43;;;23.80;99.90;;;;;;5112739;28;20372;-66
2022/08/26 01:42:47;;;;;;;7.68;4.53;;;23.80;99.90;;;;;;5095821;28;20823;-66
2022/08/26 01:45:17;;;;;;;9.87;4.90;;;23.80;99.90;;;;;;5113914;28;20388;-65
2022/08/26 01:47:45;;;;;;;8.18;5.00;;;23.80;99.90;;;;;;5113240;28;20418;-66
2022/08/26 01:50:19;;;;;;;10.85;4.93;;;23.70;99.90;;;;;;5095502;28;20376;-65
2022/08/26 01:52:47;;;;;;;8.13;4.75;;;23.70;99.90;;;;;;5092926;28;20487;-65
2022/08/26 01:55:16;;;;;;;9.20;4.90;;;23.70;99.90;;;;;;5111094;28;20377;-66
2022/08/26 01:57:47;;;;;;;7.43;4.47;;;23.60;99.90;;;;;;5093881;28;20820;-65
2022/08/26 02:00:13;;;;;;;7.63;4.67;;;23.60;99.90;;;;;;5093128;28;20377;-66
2022/08/26 02:02:48;;;;;;;8.50;4.60;;;23.60;99.90;;;;;;5091606;28;21010;-66
2022/08/26 02:05:18;;;;;;;11.82;5.00;;;23.50;99.90;;;;;;5089842;28;20463;-66
2022/08/26 02:07:46;;;;;;;10.10;5.00;;;23.50;99.90;;;;;;5111290;28;20380;-65
2022/08/26 02:10:13;;;;;;;7.40;4.43;;;23.50;99.90;;;;;;5094051;28;20388;-66
2022/08/26 02:12:38;;;;;;;9.30;4.80;;;23.50;99.90;;;;;;5110533;28;20744;-65
2022/08/26 02:15:09;;;;;;;9.27;4.82;;;23.50;99.90;;;;;;5092509;28;20389;-65
2022/08/26 02:17:46;;;;;;;9.13;4.70;;;23.50;99.90;;;;;;5091104;28;20457;-66
2022/08/26 02:20:16;;;;;;;8.88;4.78;;;23.50;99.90;;;;;;5091049;28;20395;-65
2022/08/26 02:22:43;;;;;;;7.85;4.40;;;23.50;99.90;;;;;;5088807;28;20849;-65
2022/08/26 02:25:14;;;;;;;9.20;4.57;;;23.40;99.90;;;;;;5090003;28;20583;-66
2022/08/26 02:27:40;;;;;;;8.00;4.70;;;23.40;99.90;;;;;;5089568;28;20416;-65
2022/08/26 02:30:13;;;;;;;9.07;4.70;;;23.40;99.90;;;;;;5107882;28;20400;-66
2022/08/26 02:32:39;;;;;;;10.15;5.07;;;23.30;99.90;;;;;;5091220;28;20431;-66
2022/08/26 02:35:09;;;;;;;7.78;4.95;;;23.30;99.90;;;;;;5088167;28;20941;-65
2022/08/26 02:37:35;;;;;;;10.40;4.53;;;23.30;99.90;;;;;;5090574;28;20406;-66
2022/08/26 02:40:02;;;;;;;11.68;5.30;;;23.30;99.90;;;;;;5091132;28;20609;-66
2022/08/26 02:42:28;;;;;;;8.75;5.30;;;23.30;99.90;;;;;;5091676;28;20415;-66
2022/08/26 02:44:54;;;;;;;6.20;4.43;;;23.20;99.90;;;;;;5091640;28;20378;-66
2022/08/26 02:47:19;;;;;;;10.33;4.87;;;23.20;99.90;;;;;;5090291;28;20488;-66
2022/08/26 02:49:45;;;;;;;8.37;4.30;;;23.20;99.90;;;;;;5091577;28;20386;-66
2022/08/26 02:52:11;;;;;;;10.50;4.90;;;23.10;99.90;;;;;;5090317;28;20676;-66
2022/08/26 02:54:37;;;;;;;11.83;4.80;;;23.10;99.90;;;;;;5090165;28;20474;-66
2022/08/26 02:57:04;;;;;;;10.33;4.63;;;23.10;99.90;;;;;;5089629;28;20394;-66
2022/08/26 02:59:30;;;;;;;10.20;5.07;;;23.10;99.90;;;;;;5092613;28;20400;-66
2022/08/26 03:02:17;;;;;;;8.87;4.77;;;23.10;99.90;;;;;;5092292;28;20644;-66
2022/08/26 03:04:43;;;;;;;10.80;4.90;;;23.00;99.90;;;;;;5090957;28;20619;-66
2022/08/26 03:07:08;;;;;;;11.40;5.20;;;23.00;99.90;;;;;;5089761;28;20471;-66
2022/08/26 03:09:34;;;;;;;7.65;4.80;;;23.00;99.90;;;;;;5089332;28;20400;-65
2022/08/26 03:12:00;;;;;;;7.97;4.83;;;23.00;99.90;;;;;;5089986;28;20382;-66
2022/08/26 03:14:27;;;;;;;7.23;4.67;;;23.00;99.90;;;;;;5089403;28;20378;-66
2022/08/26 03:16:53;;;;;;;9.83;4.77;;;23.00;99.90;;;;;;5086637;28;20890;-66
2022/08/26 03:19:23;;;;;;;11.77;5.03;;;22.90;99.90;;;;;;5087800;28;20789;-66
2022/08/26 03:21:50;;;;;;;7.25;4.63;;;22.90;99.90;;;;;;5088606;28;20818;-66
2022/08/26 03:24:16;;;;;;;7.72;4.75;;;22.90;99.90;;;;;;5090154;28;20673;-66
2022/08/26 03:26:42;;;;;;;8.68;4.90;;;22.90;99.90;;;;;;5089745;28;20778;-66
2022/08/26 03:31:53;;;;;;;11.38;5.30;;;22.80;99.90;;;;;;5091447;28;20491;-66
2022/08/26 03:34:18;;;;;;;9.23;5.10;;;22.80;99.90;;;;;;5090040;28;20494;-66
2022/08/26 03:36:44;;;;;;;10.80;5.00;;;22.70;99.90;;;;;;5089650;28;20386;-66
2022/08/26 03:39:12;;;;;;;8.68;5.03;;;22.70;99.90;;;;;;5088580;28;20884;-66
2022/08/26 03:41:37;;;;;;;8.63;5.43;;;22.70;99.90;;;;;;5090816;28;20374;-67
2022/08/26 03:44:04;;;;;;;10.02;4.90;;;22.70;99.90;;;;;;5091445;28;20393;-66
2022/08/26 03:46:32;;;;;;;9.50;4.95;;;22.70;99.90;;;;;;5090497;28;20425;-66
2022/08/26 03:48:59;;;;;;;9.27;5.32;;;22.60;99.90;;;;;;5090609;28;20473;-66
2022/08/26 03:51:24;;;;;;;9.63;4.88;;;22.70;99.90;;;;;;5087449;28;20381;-66
2022/08/26 03:53:50;;;;;;;9.70;5.70;;;22.60;99.90;;;;;;5087475;28;20408;-66
2022/08/26 03:56:15;;;;;;;8.47;5.17;;;22.60;99.90;;;;;;5086771;28;20832;-66
2022/08/26 03:58:43;;;;;;;8.87;5.07;;;22.60;99.90;;;;;;5086426;28;20813;-66
2022/08/26 04:01:11;;;;;;;9.55;5.28;;;22.60;99.90;;;;;;5086391;28;20386;-66
2022/08/26 04:06:20;;;;;;;11.77;5.50;;;22.50;99.90;;;;;;5087215;28;20808;-65
2022/08/26 04:08:46;;;;;;;10.10;5.33;;;22.50;99.90;;;;;;5085013;28;20382;-66
2022/08/26 04:11:20;;;;;;;7.13;4.90;;;22.50;99.90;;;;;;5083322;28;20845;-65
2022/08/26 04:13:47;;;;;;;10.70;5.22;;;22.50;99.90;;;;;;5083719;28;20454;-65
2022/08/26 04:16:14;;;;;;;12.07;5.38;;;22.40;99.90;;;;;;5082173;28;20820;-65
2022/08/26 04:18:39;;;;;;;11.25;5.45;;;22.40;99.90;;;;;;5082029;28;20398;-67
2022/08/26 04:21:06;;;;;;;8.33;5.30;;;22.50;99.90;;;;;;5081741;28;20455;-66
2022/08/26 04:23:32;;;;;;;11.00;5.28;;;22.50;99.90;;;;;;5083794;28;20811;-66
2022/08/26 04:26:00;;;;;;;9.50;4.85;;;22.50;99.90;;;;;;5083089;28;20410;-66
2022/08/26 04:28:26;;;;;;;11.70;5.35;;;22.50;99.90;;;;;;5082483;28;20427;-66
2022/08/26 04:30:52;;;;;;;9.77;5.30;;;22.50;99.90;;;;;;5084019;28;20794;-66
2022/08/26 04:33:17;;;;;;;10.07;5.30;;;22.50;99.90;;;;;;5085472;28;20628;-66
2022/08/26 04:35:44;;;;;;;8.45;5.00;;;22.50;99.90;;;;;;5104454;28;20565;-66
2022/08/26 04:38:10;;;;;;;9.73;5.50;;;22.50;99.90;;;;;;5088057;28;20427;-66
2022/08/26 04:40:36;;;;;;;9.83;5.40;;;22.50;99.90;;;;;;5087300;28;20423;-66
2022/08/26 04:43:02;;;;;;;12.57;5.35;;;22.50;99.90;;;;;;5084353;28;20380;-66
2022/08/26 04:45:28;;;;;;;11.50;5.80;;;22.50;99.90;;;;;;5084086;28;20377;-66
2022/08/26 04:47:55;;;;;;;10.37;5.90;;;22.50;99.90;;;;;;5083659;28;20672;-66
2022/08/26 04:50:22;;;;;;;8.68;5.20;;;22.40;99.90;;;;;;5083896;28;20402;-65
2022/08/26 04:52:48;;;;;;;9.82;5.53;;;22.50;99.90;;;;;;5085026;28;20488;-65
2022/08/26 04:55:14;;;;;;;9.25;5.90;;;22.50;99.90;;;;;;5085406;28;20387;-66
2022/08/26 04:57:39;;;;;;;7.60;5.13;;;22.40;99.90;;;;;;5105851;28;20544;-67
2022/08/26 05:00:06;;;;;;;11.80;6.03;;;22.40;99.90;;;;;;5089560;28;20412;-66
2022/08/26 05:02:33;;;;;;;12.18;5.80;;;22.30;99.90;;;;;;5086966;28;20737;-66
2022/08/26 05:04:58;;;;;;;13.65;5.80;;;22.30;99.90;;;;;;5090076;28;20372;-66
2022/08/26 05:07:24;;;;;;;11.70;5.85;;;22.30;99.90;;;;;;5087921;28;20453;-66
2022/08/26 05:09:49;;;;;;;14.17;6.50;;;22.40;99.90;;;;;;5086057;28;20431;-66
2022/08/26 05:12:15;;;;;;;10.20;5.70;;;22.40;99.90;;;;;;5084378;28;20372;-66
2022/08/26 05:14:41;;;;;;;9.73;5.60;;;22.40;99.90;;;;;;5084720;28;20396;-66
2022/08/26 05:17:07;;;;;;;8.47;5.77;;;22.40;99.90;;;;;;5083654;28;20534;-65
2022/08/26 05:19:33;;;;;;;7.70;5.40;;;22.40;99.90;;;;;;5085551;28;20373;-66
2022/08/26 05:21:58;;;;;;;8.75;5.72;;;22.40;99.90;;;;;;5085906;28;20380;-66
2022/08/26 05:24:24;;;;;;;11.15;5.97;;;22.40;99.90;;;;;;5085750;28;20640;-65
2022/08/26 05:26:49;;;;;;;11.33;5.90;;;22.40;99.90;;;;;;5085267;28;20447;-66
2022/08/26 05:29:15;;;;;;;12.13;6.60;;;22.40;99.90;;;;;;5103885;28;20387;-66
2022/08/26 05:31:41;;;;;;;11.10;6.27;;;22.40;99.90;;;;;;5087096;28;20513;-66
2022/08/26 05:34:07;;;;;;;12.07;6.07;;;22.40;99.90;;;;;;5084160;28;20812;-66
2022/08/26 05:36:34;;;;;;;12.37;6.30;;;22.40;99.90;;;;;;5084314;28;21104;-65
2022/08/26 05:39:00;;;;;;;10.05;5.78;;;22.40;99.90;;;;;;5084745;28;20392;-65
2022/08/26 05:41:29;;;;;;;11.10;5.60;;;22.40;99.90;;;;;;5085114;28;20389;-66
2022/08/26 05:43:56;;;;;;;9.02;5.88;;;22.40;99.90;;;;;;5085373;28;20700;-66
2022/08/26 05:46:22;;;;;;;8.90;5.97;;;22.40;99.90;;;;;;5084947;28;20505;-66
2022/08/26 05:48:48;;;;;;;9.93;5.78;;;22.50;99.90;;;;;;5083407;28;20548;-66
2022/08/26 05:51:13;;;;;;;6.97;5.32;;;22.50;99.90;;;;;;5083572;28;20386;-66
2022/08/26 05:53:40;;;;;;;8.33;5.37;;;22.60;99.90;;;;;;5081856;28;20390;-66
2022/08/26 05:56:07;;;;;;;9.15;5.70;;;22.60;99.90;;;;;;5082786;28;20386;-66
2022/08/26 05:58:35;;;;;;;7.20;5.28;;;22.60;99.90;;;;;;5085857;28;20438;-66
2022/08/26 06:01:14;;;;;;;10.23;5.43;;;22.60;99.90;;;;;;5082792;28;20380;-66
2022/08/26 06:03:43;;;;;;;8.43;5.75;;;22.60;99.90;;;;;;5078078;28;20476;-66
2022/08/26 06:06:15;;;;;;;9.75;6.00;;;22.60;99.90;;;;;;5079771;28;20385;-65
2022/08/26 06:08:42;;;;;;;11.35;5.63;;;22.70;99.90;;;;;;5076752;28;20704;-65
2022/08/26 06:11:10;;;;;;;8.32;5.70;;;22.70;99.90;;;;;;5077256;28;20378;-66
2022/08/26 06:13:36;;;;;;;12.40;5.90;;;22.70;99.90;;;;;;5077310;28;20488;-66
2022/08/26 06:16:06;;;;;;;8.27;5.57;;;22.70;99.90;;;;;;5076042;28;20528;-66
2022/08/26 06:18:35;;;;;;;8.23;5.28;;;22.70;99.90;;;;;;5079626;28;20481;-66
2022/08/26 06:21:16;;;;;;;7.88;5.63;;;22.70;99.90;;;;;;5078551;28;20392;-66
2022/08/26 06:26:28;;;;;;;9.18;6.13;;;22.80;99.90;;;;;;5079986;28;20404;-66
2022/08/26 06:28:54;;;;;;;9.55;6.15;;;22.80;99.90;;;;;;5079962;28;20600;-66
2022/08/26 06:31:21;;;;;;;14.23;6.40;;;22.80;99.90;;;;;;5078400;28;20545;-66
2022/08/26 06:33:47;;;;;;;8.82;5.30;;;22.80;99.90;;;;;;5081294;28;20389;-65
2022/08/26 06:36:18;;;;;;;8.90;5.47;;;22.80;99.90;;;;;;5078894;28;20458;-66
2022/08/26 06:38:45;;;;;;;10.77;5.88;;;22.90;99.90;;;;;;5098017;28;20986;-66
2022/08/26 06:41:11;;;;;;;8.32;6.03;;;22.90;99.90;;;;;;5078172;28;20711;-66
2022/08/26 06:43:37;;;;;;;8.43;5.77;;;23.00;99.90;;;;;;5094658;28;20489;-66
2022/08/26 06:46:07;;;;;;;9.63;6.37;;;23.00;99.90;;;;;;5076458;28;20603;-66
2022/08/26 06:48:32;;;;;;;8.75;6.47;;;23.00;99.90;;;;;;5081090;28;20690;-66
2022/08/26 06:51:12;;;;;;;12.13;6.50;;;23.00;99.90;;;;;;5100760;28;20684;-66
2022/08/26 06:53:38;;;;;;;8.88;6.82;;;23.10;99.90;;;;;;5086355;28;20373;-67
2022/08/26 06:56:06;;;;;;;10.33;6.27;;;23.10;99.90;;;;;;5085805;28;20387;-66
2022/08/26 06:58:36;;;;;;;12.10;7.28;;;23.20;99.90;;;;;;5087012;28;20461;-66
2022/08/26 07:01:02;;;;;;;8.32;5.97;;;23.20;99.90;;;;;;5105155;28;20372;-66
2022/08/26 07:03:27;;;;;;;11.35;6.07;;;23.20;99.90;;;;;;5104005;28;20814;-66
2022/08/26 07:05:59;;;;;;;7.00;5.37;;;23.30;99.90;;;;;;5086771;28;20538;-65
2022/08/26 07:08:25;;;;;;;8.27;5.70;;;23.40;99.90;;;;;;5083965;28;20865;-66
2022/08/26 07:10:50;;;;;;;9.10;6.28;;;23.40;99.90;;;;;;5080787;28;20579;-65
2022/08/26 07:13:17;;;;;;;7.43;5.50;;;23.50;99.90;;;;;;5080561;28;20479;-65
2022/08/26 07:15:42;;;;;;;9.55;5.70;;;23.50;99.90;;;;;;5081131;28;20407;-65
2022/08/26 07:18:08;;;;;;;11.37;5.60;;;23.60;99.90;;;;;;5082360;28;20489;-66
2022/08/26 07:20:41;;;;;;;8.70;6.32;;;23.70;99.90;;;;;;5080181;28;20858;-66
2022/08/26 07:23:08;;;;;;;8.50;5.50;;;23.70;99.90;;;;;;5076825;28;20391;-66
2022/08/26 07:25:37;;;;;;;10.65;6.50;;;23.70;99.90;;;;;;5075610;28;20710;-66
2022/08/26 07:28:03;;;;;;;8.27;5.37;;;23.70;99.90;;;;;;5077211;28;20502;-66
2022/08/26 07:30:29;;;;;;;11.57;6.95;;;23.80;99.90;;;;;;5076785;28;20558;-66
2022/08/26 07:32:56;;;;;;;7.73;5.90;;;23.70;99.90;;;;;;5075275;28;20473;-66
2022/08/26 07:35:22;;;;;;;9.35;5.53;;;23.80;99.90;;;;;;5074734;28;20811;-66
2022/08/26 07:37:47;;;;;;;11.40;6.35;;;23.90;99.90;;;;;;5074484;28;21009;-65
2022/08/26 07:40:15;;;;;;;12.90;7.23;;;23.90;99.90;;;;;;5075171;28;20396;-66
2022/08/26 07:42:40;;;;;;;11.57;6.72;;;23.80;99.90;;;;;;5071104;28;20705;-66
2022/08/26 07:45:06;;;;;;;8.90;6.00;;;23.90;99.90;;;;;;5070818;28;20706;-66
2022/08/26 07:47:32;;;;;;;9.15;5.50;;;24.00;99.90;;;;;;5071450;28;20560;-66
2022/08/26 07:49:58;;;;;;;9.07;6.60;;;24.10;99.90;;;;;;5073055;28;20514;-66
2022/08/26 07:52:27;;;;;;;11.32;6.13;;;24.20;99.90;;;;;;5075364;28;20897;-66
2022/08/26 07:54:54;;;;;;;12.18;7.05;;;24.20;99.90;;;;;;5074637;28;20886;-67
2022/08/26 07:57:19;;;;;;;11.93;6.93;;;24.30;99.90;;;;;;5080265;28;21036;-67
2022/08/26 07:59:45;;;;;;;17.13;7.47;;;24.30;99.90;;;;;;5083770;28;21062;-67
2022/08/26 08:02:11;;;;;;;6.97;5.47;;;24.40;99.90;;;;;;5085127;28;20400;-67
2022/08/26 08:04:36;;;;;;;11.80;6.88;;;24.40;99.90;;;;;;5100990;28;20465;-66
2022/08/26 08:07:02;;;;;;;13.15;6.80;;;24.40;99.90;;;;;;5083036;28;20372;-66
2022/08/26 08:09:28;;;;;;;14.33;7.07;;;24.40;99.90;;;;;;5085099;28;20784;-66
2022/08/26 08:11:54;;;;;;;6.50;5.50;;;24.50;99.90;;;;;;5101901;28;20390;-66
2022/08/26 08:14:20;;;;;;;13.02;7.68;;;24.60;99.90;;;;;;5085022;28;20391;-66
2022/08/26 08:16:46;;;;;;;15.38;7.43;;;24.50;99.90;;;;;;5082570;28;20730;-66
2022/08/26 08:19:12;;;;;;;13.95;7.40;;;24.50;99.90;;;;;;5084481;28;20407;-66
2022/08/26 08:21:39;;;;;;;12.05;7.05;;;24.60;99.90;;;;;;5084274;28;20534;-70
2022/08/26 08:24:05;;;;;;;10.07;6.78;;;24.60;99.90;;;;;;5102737;28;20368;-68
2022/08/26 08:26:30;;;;;;;7.18;5.57;;;24.50;99.90;;;;;;5099739;28;20466;-65
2022/08/26 08:28:56;;;;;;;8.27;5.43;;;24.60;99.90;;;;;;5099410;28;20653;-65
2022/08/26 08:31:25;;;;;;;8.40;5.20;;;24.80;99.90;;;;;;5079122;28;20396;-65
2022/08/26 08:33:51;;;;;;;5.53;4.68;;;25.00;99.90;;;;;;5075557;28;20408;-65
2022/08/26 08:36:18;;;;;;;12.95;7.25;;;25.20;99.90;;;;;;5075761;28;20419;-65
2022/08/26 08:38:44;;;;;;;10.82;6.82;;;25.30;99.90;;;;;;5079934;28;20450;-66
2022/08/26 08:41:33;;;;;;;7.78;6.13;;;25.20;99.90;;;;;;5101970;28;20698;-65
2022/08/26 08:44:00;;;;;;;15.57;7.70;;;25.20;99.90;;;;;;5081716;28;20388;-66
2022/08/26 08:46:28;;;;;;;10.07;6.72;;;25.20;99.90;;;;;;5081923;28;20450;-66
2022/08/26 08:48:58;;;;;;;11.73;7.43;;;25.10;99.90;;;;;;5087931;28;20696;-66
2022/08/26 08:51:59;;;;;;;17.40;8.20;;;25.10;99.90;;;;;;5109781;28;20414;-66
2022/08/26 08:54:27;;;;;;;9.02;6.20;;;25.10;99.90;;;;;;5109272;28;20418;-65
2022/08/26 08:57:41;;;;;;;16.58;7.57;;;25.20;99.90;;;;;;5090156;28;20376;-66
2022/08/26 09:00:11;;;;;;;12.30;7.07;;;25.10;99.90;;;;;;5086777;28;21115;-66
2022/08/26 09:02:42;;;;;;;14.13;7.25;;;25.10;99.90;;;;;;5109987;28;20848;-67
2022/08/26 09:05:24;;;;;;;7.60;6.05;;;25.10;99.90;;;;;;5089288;28;20373;-65
2022/08/26 09:07:49;;;;;;;6.30;5.60;;;25.20;99.90;;;;;;5086049;28;20387;-66
2022/08/26 09:10:30;;;;;;;6.60;5.27;;;25.40;99.90;;;;;;5087983;28;20425;-66
2022/08/26 09:12:57;;;;;;;5.68;5.03;;;25.60;99.90;;;;;;5086396;28;20463;-66
2022/08/26 09:15:46;;;;;;;5.38;4.47;;;25.70;99.90;;;;;;5087580;28;20485;-66
2022/08/26 09:18:40;;;;;;;6.43;5.55;;;25.90;99.90;;;;;;5075066;28;20407;-65
2022/08/26 09:21:10;;;;;;;5.93;5.20;;;26.00;99.90;;;;;;5076349;28;20479;-66
2022/08/26 09:23:39;;;;;;;7.60;5.17;;;26.10;99.90;;;;;;5078940;28;20475;-66
2022/08/26 09:26:18;;;;;;;6.82;5.20;;;26.20;99.90;;;;;;5097200;28;20368;-65
2022/08/26 09:28:52;;;;;;;5.65;5.07;;;26.40;99.90;;;;;;5078294;28;20784;-66
2022/08/26 09:31:24;;;;;;;12.00;7.38;;;26.50;99.90;;;;;;5078147;28;20640;-66
2022/08/26 09:34:23;;;;;;;15.02;7.35;;;26.40;99.90;;;;;;5098520;28;20451;-65
2022/08/26 09:36:49;;;;;;;9.65;6.50;;;26.40;99.90;;;;;;5092973;28;20815;-65
2022/08/26 09:39:28;;;;;;;9.70;7.00;;;26.50;99.90;;;;;;5080578;28;20924;-66
2022/08/26 09:42:19;;;;;;;10.30;5.95;;;26.60;99.90;;;;;;5079907;28;20761;-66
2022/08/26 09:45:01;;;;;;;7.00;5.05;;;26.60;99.90;;;;;;5081575;28;20497;-66
2022/08/26 09:47:35;;;;;;;8.90;5.60;;;26.70;99.90;;;;;;5103677;28;20454;-66
2022/08/26 09:50:22;;;;;;;15.98;7.95;;;26.80;99.90;;;;;;5082503;28;20388;-66
2022/08/26 09:53:04;;;;;;;9.23;5.77;;;26.80;99.90;;;;;;5078946;28;20380;-66
2022/08/26 09:55:30;;;;;;;10.90;5.63;;;26.80;99.90;;;;;;5080660;28;20384;-66
2022/08/26 09:57:55;;;;;;;12.43;6.23;;;26.90;99.90;;;;;;5081386;28;20481;-66
2022/08/26 10:00:30;;;;;;;6.82;5.43;;;26.90;99.90;;;;;;5080901;28;20377;-65
2022/08/26 10:02:58;;;;;;;8.10;5.30;;;26.90;99.90;;;;;;5082722;28;20497;-66
2022/08/26 10:05:56;;;;;;;7.60;5.20;;;27.00;99.90;;;;;;5081109;28;20408;-66
2022/08/26 10:08:41;;;;;;;5.95;4.90;;;27.00;99.90;;;;;;5059124;28;20751;-66
2022/08/26 10:11:35;;;;;;;6.20;4.78;;;27.00;99.90;;;;;;5078558;28;20501;-66
2022/08/26 10:14:08;;;;;;;7.85;5.40;;;27.00;99.90;;;;;;5084696;28;20448;-66
2022/08/26 10:16:49;;;;;;;8.95;6.22;;;27.00;99.90;;;;;;5098474;28;20792;-66
2022/08/26 10:19:20;;;;;;;7.47;5.15;;;26.90;99.90;;;;;;5076233;28;20749;-66
2022/08/26 10:22:00;;;;;;;6.30;4.82;;;27.00;99.90;;;;;;5078347;28;20377;-66
2022/08/26 10:24:48;;;;;;;6.30;4.80;;;27.00;99.90;;;;;;5080492;28;20791;-66
2022/08/26 10:27:39;;;;;;;8.35;5.45;;;27.20;99.90;;;;;;5080359;28;20419;-66
2022/08/26 10:30:16;;;;;;;10.98;5.78;;;27.10;99.90;;;;;;5097460;28;20411;-67
2022/08/26 10:32:47;;;;;;;7.27;5.63;;;27.20;99.90;;;;;;5080149;28;20384;-66
2022/08/26 10:35:16;;;;;;;10.57;6.13;;;27.30;99.90;;;;;;5081983;28;20518;-66
2022/08/26 10:37:48;;;;;;;11.57;5.85;;;27.30;99.90;;;;;;5094076;28;20772;-66
2022/08/26 10:40:24;;;;;;;5.45;4.60;;;27.40;99.90;;;;;;5078279;28;20395;-66
2022/08/26 10:42:57;;;;;;;10.00;6.05;;;27.40;99.90;;;;;;5095095;28;20372;-66
2022/08/26 10:45:27;;;;;;;13.93;6.45;;;27.40;99.90;;;;;;5074373;28;20776;-66
2022/08/26 10:47:58;;;;;;;8.88;5.82;;;27.30;99.90;;;;;;5072424;28;20792;-66
2022/08/26 10:50:37;;;;;;;13.13;7.10;;;27.30;99.90;;;;;;5073863;28;20461;-66
2022/08/26 10:53:38;;;;;;;7.68;5.90;;;27.20;99.90;;;;;;5070332;28;20388;-66
2022/08/26 10:56:45;;;;;;;10.00;6.03;;;27.30;99.90;;;;;;5072463;28;20376;-66
2022/08/26 10:59:34;;;;;;;10.03;6.50;;;27.20;99.90;;;;;;5070192;28;20485;-66
2022/08/26 11:02:20;;;;;;;8.15;5.90;;;27.30;99.90;;;;;;5067334;28;20450;-66
2022/08/26 11:04:51;;;;;;;11.57;6.72;;;27.40;99.90;;;;;;5067100;28;20384;-66
2022/08/26 11:07:42;;;;;;;9.20;5.47;;;27.40;99.90;;;;;;5087767;28;20739;-66
2022/08/26 11:10:19;;;;;;;11.65;6.13;;;27.50;99.90;;;;;;5087626;28;20884;-66
2022/08/26 11:12:52;;;;;;;13.43;6.75;;;27.60;99.90;;;;;;5071566;28;20533;-66
2022/08/26 11:15:38;;;;;;;9.52;5.75;;;27.60;99.90;;;;;;5089501;28;20547;-66
2022/08/26 11:18:07;;;;;;;8.15;5.45;;;27.60;99.90;;;;;;5090514;28;20408;-67
2022/08/26 11:20:40;;;;;;;12.48;6.85;;;27.70;99.90;;;;;;5068710;28;20453;-67
2022/08/26 11:23:12;;;;;;;8.60;5.28;;;27.80;99.90;;;;;;5068381;28;20377;-66
2022/08/26 11:26:06;;;;;;;9.95;5.28;;;27.90;99.90;;;;;;5088436;28;20395;-67
2022/08/26 11:28:37;;;;;;;10.77;5.80;;;28.00;99.90;;;;;;5071346;28;20484;-67
2022/08/26 11:31:07;;;;;;;5.88;4.82;;;28.10;99.90;;;;;;5074368;28;20453;-67
2022/08/26 11:33:51;;;;;;;11.05;6.15;;;28.20;99.90;;;;;;5074945;28;20459;-67
2022/08/26 11:36:44;;;;;;;13.63;5.93;;;28.30;99.90;;;;;;5059798;28;20398;-66
2022/08/26 11:39:23;;;;;;;10.98;5.63;;;28.40;99.90;;;;;;5059441;28;20684;-66
2022/08/26 11:41:53;;;;;;;12.48;6.10;;;28.50;99.90;;;;;;5059998;28;21261;-67
2022/08/26 11:44:24;;;;;;;7.83;5.40;;;28.50;99.90;;;;;;5064662;28;20446;-67
2022/08/26 11:46:56;;;;;;;11.38;5.53;;;28.50;99.90;;;;;;5065988;28;20397;-67
2022/08/26 11:49:23;;;;;;;14.60;6.32;;;28.60;99.90;;;;;;5063842;28;20392;-67
2022/08/26 11:51:50;;;;;;;12.65;5.78;;;28.60;99.90;;;;;;5064306;28;20831;-66
2022/08/26 11:54:20;;;;;;;11.45;6.00;;;28.60;99.90;;;;;;5065936;28;20410;-66
2022/08/26 11:56:51;;;;;;;14.95;6.57;;;28.80;99.90;;;;;;5069388;28;20463;-66
2022/08/26 11:59:32;;;;;;;6.93;4.97;;;28.70;99.90;;;;;;5068032;28;20399;-67
2022/08/26 12:01:59;;;;;;;12.02;5.85;;;29.30;99.90;;;;;;5064928;28;20643;-67
2022/08/26 12:04:36;;;;;;;8.38;4.95;;;29.70;99.90;;;;;;5080798;28;20382;-66
2022/08/26 12:07:03;;;;;;;10.68;5.72;;;30.00;99.90;;;;;;5060816;28;20574;-66
2022/08/26 12:09:34;;;;;;;11.87;4.83;;;30.30;99.90;;;;;;5054133;28;20722;-66
2022/08/26 12:12:16;;;;;;;16.42;5.88;;;30.70;99.90;;;;;;5069570;28;20676;-66
2022/08/26 12:14:42;;;;;;;9.13;5.00;;;30.90;99.90;;;;;;5073161;28;20389;-66
2022/08/26 12:17:24;;;;;;;13.10;5.90;;;31.20;99.90;;;;;;5056981;28;20397;-66
2022/08/26 12:19:50;;;;;;;9.05;5.80;;;31.20;99.90;;;;;;5058011;28;20390;-66
2022/08/26 12:22:24;;;;;;;14.93;5.53;;;30.90;99.90;;;;;;5055378;28;20542;-65
2022/08/26 12:24:58;;;;;;;8.05;4.72;;;30.40;99.90;;;;;;5052611;28;20420;-66
2022/08/26 12:27:40;;;;;;;6.57;4.32;;;30.40;99.90;;;;;;5071194;28;20384;-66
2022/08/26 12:30:12;;;;;;;8.55;4.57;;;30.40;99.90;;;;;;5051868;28;20668;-66
2022/08/26 12:32:44;;;;;;;12.65;5.32;;;30.40;99.90;;;;;;5052888;28;20390;-66
2022/08/26 12:35:13;;;;;;;8.47;4.60;;;30.30;99.90;;;;;;5046149;28;20650;-66
2022/08/26 12:37:43;;;;;;;6.80;4.20;;;30.30;99.90;;;;;;5070524;28;20409;-66
2022/08/26 12:40:42;;;;;;;10.15;5.10;;;30.60;99.90;;;;;;5073849;28;20382;-67
2022/08/26 12:43:09;;;;;;;8.40;4.40;;;30.60;99.90;;;;;;5075056;28;20378;-66
2022/08/26 12:45:54;;;;;;;5.97;4.25;;;30.70;99.90;;;;;;5072963;28;20450;-66
2022/08/26 12:48:31;;;;;;;12.27;5.40;;;30.80;99.90;;;;;;5072037;28;20548;-66
2022/08/26 12:50:58;;;;;;;7.45;4.53;;;30.80;99.90;;;;;;5069545;28;20887;-66
2022/08/26 12:53:30;;;;;;;5.72;4.38;;;30.80;99.90;;;;;;5077615;28;20813;-66
2022/08/26 12:55:59;;;;;;;7.57;4.75;;;30.70;99.90;;;;;;5081794;28;20388;-66
2022/08/26 12:58:33;;;;;;;8.88;4.75;;;30.70;99.90;;;;;;5080261;28;21075;-66
2022/08/26 13:01:05;;;;;;;13.53;5.03;;;30.70;99.90;;;;;;5079245;28;20409;-66
2022/08/26 13:03:34;;;;;;;14.65;6.28;;;30.80;99.90;;;;;;5078609;28;20401;-66
2022/08/26 13:06:21;;;;;;;14.70;6.93;;;30.40;99.90;;;;;;5081011;28;20377;-66
2022/08/26 13:08:57;;;;;;;13.88;6.80;;;29.90;99.90;;;;;;5080679;28;20370;-66